Ceffco, Illinois
Current Conditions -  °F | °C
As of 12:35 AM on Friday 28 Nov 2014 (Local Time) from KCWI Reporting Station
Overcast Overcast  
Wind Chill: 12°   Ceiling: 5000
Heat Index: 12°   Visibility: 10mi
Dew Point:   Wind: 3mph
Humidity: 67%   Direction: 230°SW
Pressure: 30.4"   Gusts: NA
Location:  41.7361°N, 90.2145°W
Report Text: KCWI 280635Z AUTO 23003KT 10SM OVC050 M11/M16 A3040 RMK AO1
Loading
Personal Weather Stations






























Interactive Weather Map New forecast layout! Learn more

10-Day Weather Forecast

Advertisements
Track Severe Weather on mobile